Tampa, Florida
Traffic Map
Current Weather Conditions
Tampa, Florida
Clear
Clear
54°
Feels Like: 54°
Wind Chill: 54° Ceiling: Unl
Heat Index: 54° Visibility: 10mi
Dew Point: 45° Wind: 6mph
Humidity: 72% Direction: 30° (NNE)
Pressure: 30.16in Gusts: 0mph
Raw Report DataKTPA 170353Z 03005KT 10SM CLR 12/07 A3016 RMK AO2 SLP212 T01220072
Traffic Incident Summary
Active as of:
Severity:
Category:
InformationThere was an issue retrieving the traffic information for this location. Please try a different location or try again shortly.
Advertisements